createdAt,value
2018-07-24T00:00:06.797Z,21.42
2018-07-24T00:02:35.104Z,21.39
2018-07-24T00:05:03.572Z,21.41
2018-07-24T00:07:31.857Z,21.40
2018-07-24T00:10:01.913Z,21.49
2018-07-24T00:12:30.318Z,21.38
2018-07-24T00:14:58.601Z,21.33
2018-07-24T00:17:26.885Z,21.22
2018-07-24T00:19:55.169Z,21.17
2018-07-24T00:22:23.429Z,21.04
2018-07-24T00:24:51.781Z,21.09
2018-07-24T00:27:20.025Z,21.14
2018-07-24T00:29:48.294Z,21.11
2018-07-24T00:32:16.620Z,21.15
2018-07-24T00:34:44.814Z,21.15
2018-07-24T00:37:13.181Z,21.10
2018-07-24T00:39:41.440Z,20.96
2018-07-24T00:42:09.725Z,20.90
2018-07-24T00:44:37.969Z,20.90
2018-07-24T00:47:06.269Z,20.96
2018-07-24T00:49:34.513Z,20.86
2018-07-24T00:52:02.788Z,20.87
2018-07-24T00:54:31.025Z,20.86
2018-07-24T00:56:59.302Z,20.86
2018-07-24T00:59:27.617Z,20.86
2018-07-24T01:01:56.065Z,20.88
2018-07-24T01:04:24.313Z,20.85
2018-07-24T01:06:52.586Z,20.72
2018-07-24T01:09:20.821Z,20.57
2018-07-24T01:11:49.106Z,20.55
2018-07-24T01:14:17.347Z,20.58
2018-07-24T01:16:45.617Z,20.61
2018-07-24T01:19:13.861Z,20.55
2018-07-24T01:21:42.137Z,20.45
2018-07-24T01:24:10.386Z,20.47
2018-07-24T01:26:38.744Z,20.36
2018-07-24T01:29:07.052Z,20.34
2018-07-24T01:31:35.292Z,20.29
2018-07-24T01:34:03.590Z,20.34
2018-07-24T01:36:31.842Z,20.24
2018-07-24T01:39:00.142Z,20.22
2018-07-24T01:41:28.409Z,20.22
2018-07-24T01:43:56.685Z,20.23
2018-07-24T01:46:24.917Z,20.32
2018-07-24T01:48:53.177Z,20.25
2018-07-24T01:51:21.433Z,20.20
2018-07-24T01:53:49.704Z,20.23
2018-07-24T01:56:17.941Z,20.20
2018-07-24T01:58:46.205Z,20.27
2018-07-24T02:01:17.328Z,20.24
2018-07-24T02:03:45.605Z,20.25
2018-07-24T02:06:14.029Z,20.18
2018-07-24T02:08:42.301Z,20.11
2018-07-24T02:11:10.549Z,20.12
2018-07-24T02:13:38.852Z,20.01
2018-07-24T02:16:07.169Z,19.87
2018-07-24T02:18:35.444Z,19.87
2018-07-24T02:21:03.726Z,19.88
2018-07-24T02:23:31.997Z,19.90
2018-07-24T02:26:00.297Z,19.75
2018-07-24T02:28:28.568Z,19.78
2018-07-24T02:30:56.861Z,19.72
2018-07-24T02:33:25.106Z,19.81
2018-07-24T02:35:53.385Z,19.82
2018-07-24T02:38:21.640Z,19.90
2018-07-24T02:40:49.918Z,19.89
2018-07-24T02:43:24.204Z,19.91
2018-07-24T02:45:52.534Z,19.86
2018-07-24T02:48:20.802Z,19.91
2018-07-24T02:50:49.105Z,19.94
2018-07-24T02:53:17.369Z,19.79
2018-07-24T02:55:45.695Z,19.86
2018-07-24T02:58:13.973Z,19.77
2018-07-24T03:00:42.267Z,19.87
2018-07-24T03:03:10.534Z,19.83
2018-07-24T03:05:38.865Z,19.84
2018-07-24T03:08:07.143Z,19.87
2018-07-24T03:10:35.452Z,19.82
2018-07-24T03:13:03.765Z,19.84
2018-07-24T03:15:33.077Z,19.87
2018-07-24T03:18:01.326Z,19.89
2018-07-24T03:20:29.625Z,19.95
2018-07-24T03:22:57.981Z,19.98
2018-07-24T03:25:26.300Z,19.94
2018-07-24T03:27:54.693Z,19.98
2018-07-24T03:30:22.953Z,20.02
2018-07-24T03:32:52.265Z,19.89
2018-07-24T03:35:20.516Z,19.92
2018-07-24T03:37:49.817Z,20.41
2018-07-24T03:40:18.137Z,20.22
2018-07-24T03:42:46.441Z,20.15
2018-07-24T03:45:14.717Z,19.92
2018-07-24T03:47:43.121Z,19.89
2018-07-24T03:50:11.369Z,19.95
2018-07-24T03:52:40.702Z,19.86
2018-07-24T03:55:09.094Z,19.87
2018-07-24T03:57:37.398Z,19.98
2018-07-24T04:00:06.457Z,20.13
2018-07-24T04:02:34.753Z,20.24
2018-07-24T04:05:03.069Z,20.31
2018-07-24T04:07:31.361Z,20.36
2018-07-24T04:09:59.622Z,20.36
2018-07-24T04:12:27.917Z,20.44
2018-07-24T04:14:56.198Z,20.47
2018-07-24T04:17:24.464Z,20.30
2018-07-24T04:19:52.745Z,20.79
2018-07-24T04:22:21.021Z,20.57
2018-07-24T04:24:49.323Z,20.54
2018-07-24T04:27:17.615Z,20.75
2018-07-24T04:29:45.896Z,20.71
2018-07-24T04:32:14.325Z,20.65
2018-07-24T04:34:42.631Z,20.53
2018-07-24T04:37:10.901Z,20.55
2018-07-24T04:39:40.200Z,20.72
2018-07-24T04:42:08.820Z,20.86
2018-07-24T04:44:38.188Z,20.88
2018-07-24T04:47:06.465Z,21.03
2018-07-24T04:49:34.821Z,21.11
2018-07-24T04:52:03.109Z,21.35
2018-07-24T04:54:31.405Z,21.37
2018-07-24T04:56:59.665Z,21.37
2018-07-24T04:59:27.968Z,21.44
2018-07-24T05:01:56.409Z,21.69
2018-07-24T05:04:24.805Z,21.83
2018-07-24T05:06:53.078Z,22.01
2018-07-24T05:09:21.452Z,22.06
2018-07-24T05:11:49.713Z,22.16
2018-07-24T05:14:17.976Z,22.33
2018-07-24T05:16:47.352Z,22.56
2018-07-24T05:19:15.557Z,22.57
2018-07-24T05:21:43.834Z,22.59
2018-07-24T05:24:12.101Z,22.73
2018-07-24T05:26:40.450Z,22.74
2018-07-24T05:29:08.673Z,22.82
2018-07-24T05:31:36.966Z,22.99
2018-07-24T05:34:06.267Z,23.16
2018-07-24T05:36:34.576Z,23.03
2018-07-24T05:39:02.865Z,23.23
2018-07-24T05:41:31.153Z,23.13
2018-07-24T05:43:59.416Z,23.42
2018-07-24T05:46:27.701Z,23.54
2018-07-24T05:48:56.046Z,23.62
2018-07-24T05:51:24.288Z,23.83
2018-07-24T05:53:52.544Z,23.89
2018-07-24T05:56:20.854Z,24.03
2018-07-24T05:58:49.108Z,23.77
2018-07-24T06:01:17.362Z,23.78
2018-07-24T06:03:45.648Z,23.75
2018-07-24T06:06:13.905Z,23.56
2018-07-24T06:08:42.189Z,23.77
2018-07-24T06:11:10.449Z,23.88
2018-07-24T06:13:38.730Z,24.06
2018-07-24T06:16:07.002Z,24.18
2018-07-24T06:18:35.282Z,24.23
2018-07-24T06:21:03.549Z,24.46
2018-07-24T06:23:31.913Z,24.56
2018-07-24T06:26:00.317Z,24.52
2018-07-24T06:28:28.610Z,24.69
2018-07-24T06:30:56.887Z,24.95
2018-07-24T06:33:25.197Z,24.74
2018-07-24T06:35:53.694Z,24.75
2018-07-24T06:38:21.971Z,24.74
2018-07-24T06:40:50.227Z,24.79
2018-07-24T06:43:18.517Z,25.28
2018-07-24T06:45:46.801Z,25.23
2018-07-24T06:48:15.143Z,25.12
2018-07-24T06:50:43.398Z,25.34
2018-07-24T06:53:11.645Z,25.43
2018-07-24T06:55:39.926Z,25.81
2018-07-24T06:58:08.204Z,25.81
2018-07-24T07:00:36.489Z,25.80
2018-07-24T07:03:04.756Z,26.02
2018-07-24T07:05:34.045Z,26.03
2018-07-24T07:08:02.322Z,26.48
2018-07-24T07:10:30.613Z,26.24
2018-07-24T07:12:58.926Z,26.16
2018-07-24T07:15:27.170Z,26.40
2018-07-24T07:17:56.502Z,26.24
2018-07-24T07:20:24.812Z,26.15
2018-07-24T07:22:53.085Z,26.18
2018-07-24T07:25:21.381Z,26.74
2018-07-24T07:27:49.669Z,26.50
2018-07-24T07:30:19.034Z,26.06
2018-07-24T07:32:47.297Z,25.96
2018-07-24T07:35:15.623Z,25.92
2018-07-24T07:37:43.881Z,26.16
2018-07-24T07:40:12.281Z,26.13
2018-07-24T07:42:41.601Z,25.93
2018-07-24T07:45:09.940Z,26.49
2018-07-24T07:47:38.694Z,26.82
2018-07-24T07:50:07.965Z,26.71
2018-07-24T07:52:36.326Z,26.75
2018-07-24T07:55:05.565Z,27.36
2018-07-24T07:57:33.884Z,27.67
2018-07-24T08:00:02.169Z,28.10
2018-07-24T08:02:30.493Z,27.78
2018-07-24T08:04:58.769Z,28.25
2018-07-24T08:07:27.048Z,27.83
2018-07-24T08:09:55.317Z,28.00
2018-07-24T08:12:24.658Z,27.81
2018-07-24T08:14:52.889Z,27.35
2018-07-24T08:17:21.172Z,26.90
2018-07-24T08:19:49.456Z,26.70
2018-07-24T08:22:19.791Z,27.26
2018-07-24T08:24:48.060Z,27.97
2018-07-24T08:27:16.401Z,28.24
2018-07-24T08:29:45.708Z,28.73
2018-07-24T08:32:13.996Z,27.67
2018-07-24T08:34:42.270Z,27.94
2018-07-24T08:37:10.603Z,28.16
2018-07-24T08:39:38.968Z,28.57
2018-07-24T08:42:07.261Z,29.03
2018-07-24T08:44:35.544Z,28.56
2018-07-24T08:47:03.801Z,27.86
2018-07-24T08:49:32.090Z,27.97
2018-07-24T08:52:00.395Z,28.11
2018-07-24T08:54:28.909Z,28.72
2018-07-24T08:56:58.077Z,28.42
2018-07-24T08:59:27.450Z,28.44
2018-07-24T09:01:55.753Z,28.45
2018-07-24T09:04:25.083Z,28.50
2018-07-24T09:06:53.407Z,28.52
2018-07-24T09:09:21.708Z,27.97
2018-07-24T09:11:52.027Z,28.50
2018-07-24T09:14:20.673Z,28.82
2018-07-24T09:16:48.941Z,28.82
2018-07-24T09:19:17.328Z,28.53
2018-07-24T09:21:45.601Z,28.72
2018-07-24T09:24:13.916Z,29.29
2018-07-24T09:26:42.206Z,29.05
2018-07-24T09:29:10.553Z,29.06
2018-07-24T09:31:40.002Z,29.54
2018-07-24T09:34:08.446Z,28.87
2018-07-24T09:36:37.773Z,28.99
2018-07-24T09:39:08.857Z,29.27
2018-07-24T09:41:37.443Z,29.19
2018-07-24T09:44:05.746Z,29.23
2018-07-24T09:46:35.094Z,29.30
2018-07-24T09:49:03.386Z,29.37
2018-07-24T09:51:31.713Z,29.75
2018-07-24T09:53:59.985Z,29.46
2018-07-24T09:56:28.317Z,29.70
2018-07-24T09:58:56.541Z,29.59
2018-07-24T10:01:33.828Z,29.77
2018-07-24T10:04:02.849Z,29.62
2018-07-24T10:06:31.721Z,29.63
2018-07-24T10:09:01.014Z,30.11
2018-07-24T10:11:29.361Z,30.53
2018-07-24T10:13:59.916Z,29.65
2018-07-24T10:16:28.236Z,30.12
2018-07-24T10:18:57.540Z,30.33
2018-07-24T10:21:29.222Z,30.46
2018-07-24T10:23:57.497Z,30.36
2018-07-24T10:26:25.825Z,30.77
2018-07-24T10:28:54.102Z,30.95
2018-07-24T10:31:22.405Z,30.81
2018-07-24T10:33:50.688Z,30.60
2018-07-24T10:36:19.014Z,30.61
2018-07-24T10:38:47.281Z,30.47
2018-07-24T10:41:15.591Z,30.24
2018-07-24T10:43:44.898Z,30.36
2018-07-24T10:46:14.273Z,30.58
2018-07-24T10:48:44.566Z,31.13
2018-07-24T10:51:12.957Z,31.06
2018-07-24T10:53:41.949Z,31.11
2018-07-24T10:56:10.225Z,30.91
2018-07-24T10:58:38.536Z,31.11
2018-07-24T11:01:06.861Z,31.62
2018-07-24T11:03:35.185Z,31.46
2018-07-24T11:06:03.473Z,31.24
2018-07-24T11:08:31.777Z,31.23
2018-07-24T11:11:00.108Z,31.05
2018-07-24T11:13:28.361Z,31.04
2018-07-24T11:15:56.634Z,30.60
2018-07-24T11:18:24.969Z,30.88
2018-07-24T11:20:53.257Z,30.60
2018-07-24T11:23:21.659Z,31.23
2018-07-24T11:25:50.880Z,31.80
2018-07-24T11:28:19.236Z,31.66
2018-07-24T11:30:47.582Z,32.27
2018-07-24T11:33:15.958Z,32.61
2018-07-24T11:35:44.337Z,32.05
2018-07-24T11:38:13.525Z,32.08
2018-07-24T11:40:41.946Z,31.87
2018-07-24T11:43:10.220Z,32.00
2018-07-24T11:45:38.537Z,31.60
2018-07-24T11:48:06.840Z,31.26
2018-07-24T11:50:35.269Z,31.76
2018-07-24T11:53:04.644Z,32.25
2018-07-24T11:55:33.038Z,31.52
2018-07-24T11:58:01.336Z,31.55
2018-07-24T12:00:30.681Z,31.44
2018-07-24T12:02:58.958Z,31.80
2018-07-24T12:05:27.259Z,31.84
2018-07-24T12:07:56.687Z,31.62
2018-07-24T12:10:28.245Z,32.42
2018-07-24T12:12:56.521Z,32.03
2018-07-24T12:15:24.840Z,32.30
2018-07-24T12:17:53.135Z,32.86
2018-07-24T12:20:21.469Z,32.65
2018-07-24T12:22:49.766Z,32.84
2018-07-24T12:25:18.087Z,33.13
2018-07-24T12:27:46.410Z,32.98
2018-07-24T12:30:14.685Z,32.97
2018-07-24T12:32:43.010Z,31.86
2018-07-24T12:35:11.283Z,32.35
2018-07-24T12:37:40.633Z,32.77
2018-07-24T12:40:08.920Z,32.59
2018-07-24T12:42:38.276Z,32.95
2018-07-24T12:45:06.714Z,33.38
2018-07-24T12:47:39.522Z,33.24
2018-07-24T12:50:08.053Z,33.36
2018-07-24T12:52:37.453Z,33.37
2018-07-24T12:55:05.785Z,33.84
2018-07-24T12:57:34.169Z,34.23
2018-07-24T13:00:02.805Z,34.26
2018-07-24T13:02:31.117Z,34.01
2018-07-24T13:04:59.594Z,34.37
2018-07-24T13:07:28.007Z,33.08
2018-07-24T13:09:56.345Z,33.78
2018-07-24T13:12:24.617Z,33.72
2018-07-24T13:14:52.951Z,33.37
2018-07-24T13:17:21.286Z,32.70
2018-07-24T13:19:50.654Z,33.29
2018-07-24T13:22:18.993Z,32.88
2018-07-24T13:24:47.268Z,33.15
2018-07-24T13:27:15.619Z,32.78
2018-07-24T13:29:44.961Z,33.32
2018-07-24T13:32:13.331Z,32.64
2018-07-24T13:34:41.578Z,32.07
2018-07-24T13:37:09.854Z,32.47
2018-07-24T13:39:38.189Z,32.65
2018-07-24T13:42:06.497Z,32.67
2018-07-24T13:44:34.807Z,33.16
2018-07-24T13:47:03.178Z,33.73
2018-07-24T13:49:31.488Z,33.93
2018-07-24T13:52:00.783Z,35.07
2018-07-24T13:54:29.138Z,35.85
2018-07-24T13:56:58.461Z,37.54
2018-07-24T13:59:26.833Z,37.24
2018-07-24T14:01:55.101Z,37.79
2018-07-24T14:04:23.417Z,38.76
2018-07-24T14:06:51.698Z,39.98
2018-07-24T14:09:20.014Z,42.97
2018-07-24T14:11:48.294Z,43.45
2018-07-24T14:14:16.742Z,42.16
2018-07-24T14:16:44.937Z,43.18
2018-07-24T14:19:13.245Z,42.78
2018-07-24T14:21:41.580Z,41.76
2018-07-24T14:24:10.697Z,42.50
2018-07-24T14:26:40.018Z,44.80
2018-07-24T14:29:09.306Z,45.47
2018-07-24T14:31:37.590Z,46.02
2018-07-24T14:34:06.898Z,47.51
2018-07-24T14:36:35.253Z,47.76
2018-07-24T14:39:03.665Z,45.60
2018-07-24T14:41:33.124Z,46.44
2018-07-24T14:44:01.401Z,46.86
2018-07-24T14:46:29.750Z,45.07
2018-07-24T14:48:57.986Z,44.74
2018-07-24T14:51:26.284Z,43.84
2018-07-24T14:53:54.570Z,44.88
2018-07-24T14:56:22.882Z,43.32
2018-07-24T14:58:51.190Z,44.21
2018-07-24T15:01:19.697Z,46.05
2018-07-24T15:03:47.973Z,46.88
2018-07-24T15:06:16.292Z,48.18
2018-07-24T15:08:44.572Z,46.39
2018-07-24T15:11:12.907Z,47.28
2018-07-24T15:13:41.217Z,47.41
2018-07-24T15:16:09.535Z,47.85
2018-07-24T15:18:37.797Z,48.03
2018-07-24T15:21:06.081Z,47.74
2018-07-24T15:23:35.411Z,46.88
2018-07-24T15:26:04.162Z,45.59
2018-07-24T15:28:32.508Z,45.50
2018-07-24T15:31:00.794Z,45.88
2018-07-24T15:33:29.099Z,46.19
2018-07-24T15:35:57.414Z,45.92
2018-07-24T15:38:25.701Z,46.11
2018-07-24T15:40:54.027Z,47.43
2018-07-24T15:43:22.409Z,46.56
2018-07-24T15:45:51.719Z,47.67
2018-07-24T15:48:20.049Z,48.03
2018-07-24T15:50:48.879Z,47.83
2018-07-24T15:53:17.205Z,47.84
2018-07-24T15:55:46.545Z,47.65
2018-07-24T15:58:14.985Z,47.56
2018-07-24T16:00:44.329Z,47.75
2018-07-24T16:03:12.643Z,46.62
2018-07-24T16:05:40.933Z,47.08
2018-07-24T16:08:09.307Z,47.69
2018-07-24T16:10:37.577Z,48.85
2018-07-24T16:13:05.915Z,47.98
2018-07-24T16:15:34.343Z,48.11
2018-07-24T16:18:02.503Z,48.03
2018-07-24T16:20:30.810Z,46.58
2018-07-24T16:22:59.061Z,47.16
2018-07-24T16:25:27.405Z,46.53
2018-07-24T16:27:56.680Z,47.48
2018-07-24T16:30:24.993Z,45.85
2018-07-24T16:32:53.269Z,47.01
2018-07-24T16:35:21.581Z,46.80
2018-07-24T16:37:49.893Z,46.38
2018-07-24T16:40:18.233Z,46.03
2018-07-24T16:42:46.553Z,47.15
2018-07-24T16:45:14.858Z,47.45
2018-07-24T16:47:45.361Z,46.67
2018-07-24T16:50:13.741Z,46.15
2018-07-24T16:52:42.017Z,46.82
2018-07-24T16:55:10.358Z,47.34
2018-07-24T16:57:38.635Z,46.83
2018-07-24T17:00:08.046Z,46.48
2018-07-24T17:02:36.324Z,46.98
2018-07-24T17:05:04.617Z,45.59
2018-07-24T17:07:32.965Z,44.75
2018-07-24T17:10:03.393Z,44.52
2018-07-24T17:12:31.719Z,43.94
2018-07-24T17:14:59.996Z,43.98
2018-07-24T17:17:28.326Z,43.41
2018-07-24T17:19:56.681Z,43.59
2018-07-24T17:22:25.040Z,43.26
2018-07-24T17:24:53.325Z,42.78
2018-07-24T17:27:21.670Z,43.19
2018-07-24T17:29:49.976Z,41.21
2018-07-24T17:32:18.305Z,38.35
2018-07-24T17:34:46.606Z,35.99
2018-07-24T17:37:15.984Z,34.42
2018-07-24T17:39:45.245Z,32.96
2018-07-24T17:42:13.577Z,32.31
2018-07-24T17:44:43.925Z,31.44
2018-07-24T17:47:12.281Z,31.39
2018-07-24T17:49:40.583Z,30.99
2018-07-24T17:52:10.033Z,31.11
2018-07-24T17:54:38.323Z,31.11
2018-07-24T17:57:06.635Z,30.74
2018-07-24T17:59:35.026Z,30.38
2018-07-24T18:02:03.877Z,30.46
2018-07-24T18:04:33.477Z,30.42
2018-07-24T18:07:01.794Z,30.19
2018-07-24T18:09:30.222Z,30.21
2018-07-24T18:11:58.558Z,30.06
2018-07-24T18:14:26.868Z,30.18
2018-07-24T18:16:59.137Z,30.12
2018-07-24T18:19:27.469Z,30.07
2018-07-24T18:21:56.839Z,29.89
2018-07-24T18:24:29.123Z,29.56
2018-07-24T18:26:58.606Z,29.51
2018-07-24T18:29:26.902Z,29.52
2018-07-24T18:31:55.315Z,29.54
2018-07-24T18:34:23.656Z,29.53
2018-07-24T18:36:52.043Z,29.53
2018-07-24T18:39:21.365Z,29.53
2018-07-24T18:41:50.785Z,29.53
2018-07-24T18:44:19.082Z,29.52
2018-07-24T18:46:47.413Z,29.31
2018-07-24T18:49:20.549Z,29.33
2018-07-24T18:51:48.822Z,29.22
2018-07-24T18:54:17.126Z,29.24
2018-07-24T18:56:48.917Z,29.23
2018-07-24T18:59:17.337Z,29.15
2018-07-24T19:01:45.610Z,29.10
2018-07-24T19:04:13.937Z,28.98
2018-07-24T19:06:42.238Z,28.79
2018-07-24T19:09:11.506Z,28.91
2018-07-24T19:11:40.106Z,29.15
2018-07-24T19:14:08.771Z,29.00
2018-07-24T19:16:37.069Z,29.03
2018-07-24T19:19:05.364Z,29.04
2018-07-24T19:21:33.774Z,29.00
2018-07-24T19:24:02.057Z,28.93
2018-07-24T19:26:30.362Z,28.80
2018-07-24T19:28:58.685Z,28.75
2018-07-24T19:31:27.008Z,28.69
2018-07-24T19:33:56.369Z,28.59
2018-07-24T19:36:24.651Z,28.53
2018-07-24T19:38:52.960Z,28.50
2018-07-24T19:41:21.181Z,28.36
2018-07-24T19:43:49.520Z,28.25
2018-07-24T19:46:17.725Z,28.18
2018-07-24T19:48:45.981Z,28.03
2018-07-24T19:51:14.334Z,28.02
2018-07-24T19:53:42.596Z,27.95
2018-07-24T19:56:11.061Z,27.90
2018-07-24T19:58:39.350Z,27.86
2018-07-24T20:01:07.609Z,27.82
2018-07-24T20:03:35.976Z,27.81
2018-07-24T20:06:04.281Z,27.81
2018-07-24T20:08:32.557Z,27.76
2018-07-24T20:11:00.826Z,27.66
2018-07-24T20:13:29.107Z,27.63
2018-07-24T20:15:57.568Z,27.57
2018-07-24T20:18:25.873Z,27.37
2018-07-24T20:20:54.126Z,27.30
2018-07-24T20:23:22.481Z,27.29
2018-07-24T20:25:50.679Z,27.09
2018-07-24T20:28:19.116Z,27.01
2018-07-24T20:30:47.570Z,26.80
2018-07-24T20:33:15.852Z,26.68
2018-07-24T20:35:44.322Z,26.66
2018-07-24T20:38:12.481Z,26.65
2018-07-24T20:40:40.737Z,26.61
2018-07-24T20:43:09.053Z,26.57
2018-07-24T20:45:37.343Z,26.33
2018-07-24T20:48:07.071Z,26.27
2018-07-24T20:50:36.928Z,26.10
2018-07-24T20:53:05.354Z,25.95
2018-07-24T20:55:33.742Z,25.94
2018-07-24T20:58:02.042Z,25.91
2018-07-24T21:00:30.366Z,25.98
2018-07-24T21:03:00.622Z,26.09
2018-07-24T21:05:28.949Z,26.29
2018-07-24T21:07:58.264Z,25.97
2018-07-24T21:10:28.661Z,25.86
2018-07-24T21:12:57.060Z,26.04
2018-07-24T21:15:25.329Z,26.20
2018-07-24T21:17:54.620Z,25.84
2018-07-24T21:20:25.033Z,25.71
2018-07-24T21:22:53.261Z,25.63
2018-07-24T21:25:22.652Z,25.58
2018-07-24T21:27:50.941Z,25.52
2018-07-24T21:30:19.269Z,25.46
2018-07-24T21:32:47.541Z,25.48
2018-07-24T21:35:15.840Z,25.41
2018-07-24T21:37:46.535Z,25.38
2018-07-24T21:40:15.934Z,25.41
2018-07-24T21:42:44.287Z,25.39
2018-07-24T21:45:12.564Z,25.28
2018-07-24T21:47:40.866Z,25.29
2018-07-24T21:50:09.142Z,25.22
2018-07-24T21:52:37.453Z,25.29
2018-07-24T21:55:05.729Z,25.24
2018-07-24T21:57:34.033Z,25.17
2018-07-24T22:00:02.344Z,25.13
2018-07-24T22:02:30.637Z,25.09
2018-07-24T22:04:58.931Z,25.05
2018-07-24T22:07:28.233Z,25.02
2018-07-24T22:09:56.502Z,24.99
2018-07-24T22:12:24.797Z,24.87
2018-07-24T22:14:53.081Z,24.98
2018-07-24T22:17:21.407Z,24.94
2018-07-24T22:19:50.779Z,24.86
2018-07-24T22:22:19.213Z,24.91
2018-07-24T22:24:47.500Z,24.90
2018-07-24T22:27:15.843Z,24.79
2018-07-24T22:29:45.165Z,24.76
2018-07-24T22:32:13.465Z,24.70
2018-07-24T22:34:41.731Z,24.62
2018-07-24T22:37:10.086Z,24.59
2018-07-24T22:39:38.365Z,24.55
2018-07-24T22:42:07.745Z,24.55
2018-07-24T22:44:36.050Z,24.57
2018-07-24T22:47:04.325Z,24.57
2018-07-24T22:49:32.613Z,24.52
2018-07-24T22:52:00.905Z,24.44
2018-07-24T22:54:32.477Z,24.37
2018-07-24T22:57:00.832Z,24.38
2018-07-24T22:59:31.160Z,24.30
2018-07-24T23:01:59.445Z,24.29
2018-07-24T23:04:27.742Z,24.23
2018-07-24T23:06:56.078Z,24.28
2018-07-24T23:09:24.377Z,24.27
2018-07-24T23:11:54.341Z,24.15
2018-07-24T23:14:22.641Z,24.17
2018-07-24T23:16:51.091Z,24.16
2018-07-24T23:19:19.421Z,24.12
2018-07-24T23:21:48.714Z,24.07
2018-07-24T23:24:20.341Z,23.94
2018-07-24T23:26:49.669Z,23.95
2018-07-24T23:29:17.957Z,23.86
2018-07-24T23:31:46.333Z,23.88
2018-07-24T23:34:14.672Z,23.84
2018-07-24T23:36:44.001Z,23.76
2018-07-24T23:39:14.356Z,23.61
2018-07-24T23:41:42.680Z,23.59
2018-07-24T23:44:10.965Z,23.61
2018-07-24T23:46:39.598Z,23.55
2018-07-24T23:50:11.004Z,23.49
2018-07-24T23:52:40.309Z,23.33
2018-07-24T23:55:08.580Z,23.34
2018-07-24T23:57:36.955Z,23.39
